Time;durP1;ratioP1;P1;durP2;ratioP2;P2;SDS_P1;SDS_P2;PMS_P1;PMS_P2;Temp;Humidity;BMP_temperature;BMP_pressure;BME280_temperature;BME280_humidity;BME280_pressure;Samples;Min_cycle;Max_cycle;Signal;HPM_P1;HPM_P2
2022/01/24 00:01:20;;;;;;;15.63;11.82;;;5.00;99.90;;;;;;5017003;28;20137;-80
2022/01/24 00:03:46;;;;;;;15.45;12.30;;;5.00;99.90;;;;;;5033349;28;20131;-80
2022/01/24 00:06:15;;;;;;;15.55;10.98;;;4.90;99.90;;;;;;5000993;28;20096;-80
2022/01/24 00:08:41;;;;;;;15.32;11.43;;;5.00;99.90;;;;;;5033235;28;20060;-79
2022/01/24 00:11:11;;;;;;;14.85;10.95;;;4.90;99.90;;;;;;5016588;28;20404;-81
2022/01/24 00:16:22;;;;;;;13.32;10.45;;;4.90;99.90;;;;;;5032924;28;20060;-80
2022/01/24 00:26:56;;;;;;;11.70;9.27;;;4.90;99.90;;;;;;5028837;28;20565;-80
2022/01/24 00:29:23;;;;;;;13.57;10.25;;;4.90;99.90;;;;;;5016353;28;20038;-79
2022/01/24 00:31:50;;;;;;;14.57;10.48;;;4.90;99.90;;;;;;5015748;28;20120;-80
2022/01/24 00:34:17;;;;;;;13.32;10.20;;;4.90;99.90;;;;;;5016441;28;20382;-80
2022/01/24 00:36:47;;;;;;;13.05;10.45;;;4.80;99.90;;;;;;5032234;28;20441;-80
2022/01/24 00:39:13;;;;;;;13.75;10.05;;;4.80;99.90;;;;;;5016214;28;20077;-80
2022/01/24 00:42:30;;;;;;;12.45;9.35;;;4.80;99.90;;;;;;5032125;28;20124;-80
2022/01/24 00:47:04;;;;;;;12.30;9.68;;;4.80;99.90;;;;;;5032344;28;20049;-80
2022/01/24 00:54:51;;;;;;;11.55;9.07;;;4.80;99.90;;;;;;5031601;28;20185;-79
2022/01/24 00:57:18;;;;;;;10.68;8.45;;;4.90;99.90;;;;;;5032047;28;20408;-80
2022/01/24 00:59:43;;;;;;;10.52;8.38;;;4.90;99.90;;;;;;5015220;28;20053;-80
2022/01/24 01:02:09;;;;;;;10.43;8.18;;;4.70;99.90;;;;;;5014681;28;20045;-80
2022/01/24 01:04:51;;;;;;;11.60;8.55;;;4.70;99.90;;;;;;5032021;28;20098;-80
2022/01/24 01:18:15;;;;;;;10.20;8.18;;;4.70;99.90;;;;;;5030457;28;20053;-80
2022/01/24 01:21:29;;;;;;;10.40;8.10;;;4.60;99.90;;;;;;5015446;28;20046;-79
2022/01/24 01:23:33;;;;;;;11.15;7.75;;;4.60;99.90;;;;;;4988859;28;20128;-80
2022/01/24 01:26:03;;;;;;;11.07;7.45;;;4.60;99.90;;;;;;5030328;28;20042;-80
2022/01/24 01:28:30;;;;;;;9.10;6.70;;;4.70;99.90;;;;;;5031493;28;20049;-80
2022/01/24 01:31:00;;;;;;;8.82;6.22;;;4.60;99.90;;;;;;5015119;28;20115;-80
2022/01/24 01:33:37;;;;;;;8.50;6.20;;;4.60;99.90;;;;;;5031028;28;20045;-80
2022/01/24 01:57:13;;;;;;;8.15;5.53;;;4.60;99.90;;;;;;5014551;28;20041;-80
2022/01/24 01:59:39;;;;;;;7.90;5.75;;;4.50;99.90;;;;;;5030924;28;20057;-80
2022/01/24 02:02:04;;;;;;;6.97;5.47;;;4.50;99.90;;;;;;5030743;28;20044;-80
2022/01/24 02:04:30;;;;;;;7.53;5.85;;;4.50;99.90;;;;;;5031329;28;20128;-80
2022/01/24 02:06:56;;;;;;;8.75;5.57;;;4.50;99.90;;;;;;5031311;28;20042;-80
2022/01/24 02:09:29;;;;;;;7.53;5.53;;;4.50;99.90;;;;;;5014340;28;20492;-80
2022/01/24 02:11:54;;;;;;;5.88;5.00;;;4.50;99.90;;;;;;5013770;28;20080;-81
2022/01/24 02:14:25;;;;;;;11.98;5.63;;;4.50;99.90;;;;;;5031047;28;20088;-79
2022/01/24 02:16:57;;;;;;;6.57;5.13;;;4.50;99.90;;;;;;5030762;28;20052;-79
2022/01/24 02:22:41;;;;;;;7.50;5.25;;;4.50;99.90;;;;;;5013088;28;20045;-80
2022/01/24 02:25:11;;;;;;;7.60;4.95;;;4.50;99.90;;;;;;5011844;28;20046;-79
2022/01/24 02:27:52;;;;;;;6.72;4.85;;;4.40;99.90;;;;;;5015448;28;20496;-80
2022/01/24 02:30:41;;;;;;;8.65;5.15;;;4.40;99.90;;;;;;5014402;28;20496;-80
2022/01/24 02:33:08;;;;;;;6.35;4.82;;;4.40;99.90;;;;;;5017053;28;20049;-80
2022/01/24 02:35:34;;;;;;;5.78;4.78;;;4.40;99.90;;;;;;5014361;28;20499;-79
2022/01/24 02:38:04;;;;;;;6.35;5.28;;;4.40;99.90;;;;;;5032459;28;20061;-80
2022/01/24 02:40:29;;;;;;;7.07;5.28;;;4.50;99.90;;;;;;5002085;28;20626;-80
2022/01/24 02:48:27;;;;;;;8.40;5.70;;;4.40;99.90;;;;;;5019923;28;20042;-80
2022/01/24 02:53:47;;;;;;;7.60;5.20;;;4.40;99.90;;;;;;5006313;28;20049;-79
2022/01/24 02:56:13;;;;;;;6.93;5.30;;;4.40;99.90;;;;;;5017936;28;20041;-80
2022/01/24 02:58:38;;;;;;;9.75;6.00;;;4.40;99.90;;;;;;5017331;28;20057;-79
2022/01/24 03:01:07;;;;;;;7.80;5.70;;;4.30;99.90;;;;;;5034473;28;20124;-79
2022/01/24 03:03:34;;;;;;;9.50;6.05;;;4.50;99.90;;;;;;5034206;28;20128;-79
2022/01/24 03:06:00;;;;;;;7.03;5.13;;;4.30;99.90;;;;;;5034167;28;20104;-80
2022/01/24 03:08:26;;;;;;;10.13;6.22;;;4.30;99.90;;;;;;5017667;28;20041;-80
2022/01/24 03:10:53;;;;;;;6.05;4.70;;;4.30;99.90;;;;;;5017148;28;20095;-79
2022/01/24 03:15:53;;;;;;;6.30;5.03;;;4.30;99.90;;;;;;5034162;28;20574;-79
2022/01/24 03:18:19;;;;;;;8.50;5.30;;;4.30;99.90;;;;;;5033240;28;20049;-80
2022/01/24 03:20:46;;;;;;;6.63;5.40;;;4.30;99.90;;;;;;5001125;28;20042;-80
2022/01/24 03:23:13;;;;;;;6.80;5.03;;;4.30;99.90;;;;;;5017157;28;20095;-79
2022/01/24 03:25:40;;;;;;;7.72;5.43;;;4.30;99.90;;;;;;5033626;28;20108;-80
2022/01/24 03:28:06;;;;;;;6.95;6.00;;;4.30;99.90;;;;;;5033220;28;20087;-79
2022/01/24 03:30:33;;;;;;;8.73;5.85;;;4.30;99.90;;;;;;5017043;28;20037;-79
2022/01/24 03:32:59;;;;;;;7.55;5.40;;;4.40;99.90;;;;;;5033647;28;20545;-80
2022/01/24 03:35:25;;;;;;;8.55;5.97;;;4.30;99.90;;;;;;5017244;28;20105;-80
2022/01/24 03:37:51;;;;;;;6.60;5.28;;;4.30;99.90;;;;;;5016859;28;20077;-80
2022/01/24 03:40:16;;;;;;;8.02;6.18;;;4.30;99.90;;;;;;5013405;28;20053;-79
2022/01/24 03:42:42;;;;;;;8.68;5.68;;;4.30;99.90;;;;;;5020949;28;20037;-80
2022/01/24 03:45:10;;;;;;;7.22;5.40;;;4.30;99.90;;;;;;5033499;28;20080;-79
2022/01/24 03:50:11;;;;;;;7.68;6.10;;;4.20;99.90;;;;;;5032513;28;20049;-79
2022/01/24 03:52:37;;;;;;;7.13;5.15;;;4.30;99.90;;;;;;5032725;28;20037;-79
2022/01/24 03:55:04;;;;;;;7.40;5.30;;;4.20;99.90;;;;;;5033247;28;20404;-80
2022/01/24 03:57:30;;;;;;;7.32;5.90;;;4.20;99.90;;;;;;5032966;28;20132;-80
2022/01/24 03:59:55;;;;;;;7.60;6.03;;;4.20;99.90;;;;;;5016443;28;20132;-80
2022/01/24 04:02:23;;;;;;;7.47;6.00;;;4.20;99.90;;;;;;5000133;28;20045;-80
2022/01/24 04:04:50;;;;;;;9.65;5.72;;;4.20;99.90;;;;;;5032136;28;20476;-80
2022/01/24 04:07:16;;;;;;;7.75;6.28;;;4.20;99.90;;;;;;5016845;28;20570;-80
2022/01/24 04:09:43;;;;;;;8.55;6.57;;;4.20;99.90;;;;;;5032731;28;20046;-80
2022/01/24 04:12:10;;;;;;;7.95;6.13;;;4.20;99.90;;;;;;5032588;28;20124;-80
2022/01/24 04:17:36;;;;;;;7.25;5.60;;;4.20;99.90;;;;;;5033659;28;20055;-80
2022/01/24 04:22:33;;;;;;;10.73;7.90;;;4.20;99.90;;;;;;5016698;28;20096;-80
2022/01/24 04:25:02;;;;;;;8.82;6.50;;;4.20;99.90;;;;;;5013937;28;20049;-79
2022/01/24 04:27:28;;;;;;;11.40;7.38;;;4.20;99.90;;;;;;5015851;28;20069;-80
2022/01/24 04:29:54;;;;;;;9.77;7.60;;;4.40;99.90;;;;;;5032462;28;20412;-80
2022/01/24 04:32:20;;;;;;;13.27;7.90;;;4.20;99.90;;;;;;5032299;28;20053;-80
2022/01/24 04:34:46;;;;;;;10.00;6.82;;;4.20;99.90;;;;;;4999396;28;20041;-80
2022/01/24 04:37:12;;;;;;;13.40;7.55;;;4.20;99.90;;;;;;5015737;28;20053;-80
2022/01/24 04:39:38;;;;;;;11.45;7.13;;;4.30;99.90;;;;;;5015927;28;20550;-79
2022/01/24 04:42:12;;;;;;;9.60;7.32;;;4.30;99.90;;;;;;5031903;28;20132;-79
2022/01/24 04:55:07;;;;;;;13.93;8.35;;;4.30;99.90;;;;;;5016479;28;20045;-80
2022/01/24 04:57:33;;;;;;;12.63;8.65;;;4.20;99.90;;;;;;5015465;28;20095;-80
2022/01/24 05:00:00;;;;;;;14.45;9.07;;;4.20;99.90;;;;;;5013982;28;20049;-79
2022/01/24 05:02:27;;;;;;;12.00;8.30;;;4.20;99.90;;;;;;5032328;28;20483;-80
2022/01/24 05:04:56;;;;;;;12.38;8.43;;;4.20;99.90;;;;;;5015036;28;20041;-80
2022/01/24 05:07:22;;;;;;;14.15;8.95;;;4.20;99.90;;;;;;5031556;28;20056;-80
2022/01/24 05:09:58;;;;;;;14.30;9.73;;;4.20;99.90;;;;;;5015715;28;20139;-79
2022/01/24 05:25:52;;;;;;;14.30;9.70;;;4.20;99.90;;;;;;5031797;28;20128;-79
2022/01/24 05:28:18;;;;;;;16.73;10.38;;;4.10;99.90;;;;;;5015393;28;20514;-80
2022/01/24 05:30:44;;;;;;;15.27;10.18;;;4.20;99.90;;;;;;5014583;28;20052;-79
2022/01/24 05:33:10;;;;;;;14.57;10.70;;;4.10;99.90;;;;;;5031090;28;20500;-80
2022/01/24 05:35:36;;;;;;;15.65;10.52;;;4.10;99.90;;;;;;5014201;28;20033;-80
2022/01/24 05:38:03;;;;;;;14.00;10.15;;;4.10;99.90;;;;;;5015208;28;20060;-79
2022/01/24 05:40:29;;;;;;;18.48;11.07;;;4.20;99.90;;;;;;5030445;28;20049;-80
2022/01/24 05:42:54;;;;;;;16.13;10.25;;;4.10;99.90;;;;;;5015285;28;20037;-80
2022/01/24 05:45:20;;;;;;;15.00;10.68;;;4.10;99.90;;;;;;5013980;28;20042;-79
2022/01/24 05:47:46;;;;;;;15.75;10.43;;;4.10;99.90;;;;;;5031586;28;20045;-79
2022/01/24 05:50:12;;;;;;;17.48;11.30;;;4.10;99.90;;;;;;5014892;28;20136;-80
2022/01/24 05:52:37;;;;;;;17.52;11.38;;;4.00;99.90;;;;;;5014565;28;20045;-79
2022/01/24 05:55:05;;;;;;;15.18;10.65;;;4.00;99.90;;;;;;5015047;28;20099;-80
2022/01/24 05:57:30;;;;;;;13.55;9.82;;;4.10;99.90;;;;;;5014848;28;20492;-79
2022/01/24 05:59:56;;;;;;;16.25;11.60;;;4.10;99.90;;;;;;5030574;28;20048;-79
2022/01/24 06:02:22;;;;;;;15.52;10.48;;;4.10;99.90;;;;;;5014265;28;20046;-79
2022/01/24 06:04:48;;;;;;;16.23;10.82;;;4.00;99.90;;;;;;5030740;28;20042;-79
2022/01/24 06:07:13;;;;;;;14.73;10.95;;;4.10;99.90;;;;;;5014467;28;20042;-80
2022/01/24 06:09:39;;;;;;;17.13;11.30;;;4.10;99.90;;;;;;5014064;28;20454;-80
2022/01/24 06:12:06;;;;;;;17.30;11.73;;;4.00;99.90;;;;;;5033388;28;20052;-80
2022/01/24 06:14:31;;;;;;;18.10;11.82;;;4.00;99.90;;;;;;5034121;28;20045;-79
2022/01/24 06:16:57;;;;;;;16.40;12.07;;;4.00;99.90;;;;;;5018898;28;20046;-79
2022/01/24 06:19:23;;;;;;;18.25;11.18;;;4.10;99.90;;;;;;5001805;28;20527;-80
2022/01/24 06:21:49;;;;;;;16.85;11.68;;;4.20;99.90;;;;;;5002379;28;20060;-80
2022/01/24 06:24:14;;;;;;;18.80;11.98;;;4.00;99.90;;;;;;5018142;28;20042;-80
2022/01/24 06:26:40;;;;;;;17.63;12.23;;;4.00;99.90;;;;;;4985898;28;20053;-80
2022/01/24 06:29:06;;;;;;;17.23;11.50;;;4.10;99.90;;;;;;5035143;28;20046;-80
2022/01/24 06:31:32;;;;;;;17.95;11.52;;;4.00;99.90;;;;;;5034992;28;20041;-80
2022/01/24 06:33:58;;;;;;;18.88;12.35;;;4.00;99.90;;;;;;5034499;28;20101;-79
2022/01/24 06:36:24;;;;;;;16.90;11.63;;;4.00;99.90;;;;;;5001954;28;20448;-79
2022/01/24 06:38:50;;;;;;;20.77;12.90;;;4.00;99.90;;;;;;5001980;28;20111;-80
2022/01/24 06:41:21;;;;;;;19.33;12.38;;;4.00;99.90;;;;;;5018056;28;20053;-80
2022/01/24 06:43:47;;;;;;;19.65;13.80;;;4.10;99.90;;;;;;5018385;28;20052;-79
2022/01/24 06:46:13;;;;;;;21.30;12.70;;;4.00;99.90;;;;;;5017394;28;20435;-80
2022/01/24 06:48:39;;;;;;;18.33;12.57;;;4.00;99.90;;;;;;5034171;28;20550;-80
2022/01/24 06:51:10;;;;;;;19.67;13.15;;;4.00;99.90;;;;;;5017931;28;20037;-80
2022/01/24 06:53:37;;;;;;;16.98;12.00;;;4.00;99.90;;;;;;5018040;28;20045;-79
2022/01/24 06:56:07;;;;;;;16.83;12.27;;;4.10;99.90;;;;;;5034318;28;20152;-79
2022/01/24 06:58:34;;;;;;;19.50;11.90;;;4.00;99.90;;;;;;5034172;28;20124;-80
2022/01/24 07:01:00;;;;;;;21.13;13.02;;;4.00;99.90;;;;;;5018201;28;20053;-79
2022/01/24 07:03:25;;;;;;;16.33;11.15;;;4.00;99.90;;;;;;5033789;28;20037;-79
2022/01/24 07:05:51;;;;;;;21.05;12.30;;;4.00;99.90;;;;;;5001170;28;20037;-80
2022/01/24 07:08:17;;;;;;;19.75;13.05;;;4.20;99.90;;;;;;5017236;28;20515;-81
2022/01/24 07:10:43;;;;;;;17.83;12.73;;;4.00;99.90;;;;;;5034263;28;20399;-80
2022/01/24 07:13:08;;;;;;;20.00;12.23;;;4.00;99.90;;;;;;5017317;28;20038;-80
2022/01/24 07:15:40;;;;;;;19.67;14.13;;;4.00;99.90;;;;;;5033612;28;20465;-79
2022/01/24 07:20:35;;;;;;;17.75;12.18;;;4.00;99.90;;;;;;5033453;28;20052;-80
2022/01/24 07:23:02;;;;;;;17.38;12.52;;;4.00;99.90;;;;;;5033293;28;20040;-80
2022/01/24 07:25:28;;;;;;;17.88;12.38;;;4.00;99.90;;;;;;5001645;28;20396;-80
2022/01/24 07:27:54;;;;;;;17.83;12.20;;;4.00;99.90;;;;;;5016939;28;20037;-80
2022/01/24 07:30:19;;;;;;;16.02;11.27;;;4.00;99.90;;;;;;5033316;28;20041;-79
2022/01/24 07:32:45;;;;;;;16.90;11.98;;;4.00;99.90;;;;;;5033625;28;20044;-79
2022/01/24 07:35:11;;;;;;;17.23;12.38;;;4.00;99.90;;;;;;5000532;28;20037;-80
2022/01/24 07:37:37;;;;;;;17.63;11.98;;;4.10;99.90;;;;;;5016766;28;20083;-80
2022/01/24 07:40:06;;;;;;;17.70;11.63;;;4.10;99.90;;;;;;5016797;28;20041;-80
2022/01/24 07:42:54;;;;;;;18.15;12.10;;;4.00;99.90;;;;;;5000506;28;20052;-80
2022/01/24 07:45:22;;;;;;;17.58;12.38;;;4.00;99.90;;;;;;5002777;28;20136;-79
2022/01/24 07:47:49;;;;;;;16.17;11.55;;;4.10;99.90;;;;;;5033674;28;20045;-79
2022/01/24 07:50:17;;;;;;;19.08;12.43;;;4.10;99.90;;;;;;5016890;28;20041;-80
2022/01/24 07:52:43;;;;;;;17.88;11.50;;;4.10;99.90;;;;;;5033565;28;20411;-80
2022/01/24 07:55:09;;;;;;;17.05;11.82;;;4.00;99.90;;;;;;5033332;28;20041;-80
2022/01/24 07:57:35;;;;;;;19.20;12.20;;;4.20;99.90;;;;;;5017006;28;20041;-80
2022/01/24 08:00:01;;;;;;;17.05;11.95;;;4.10;99.90;;;;;;5032428;28;20056;-80
2022/01/24 08:02:27;;;;;;;18.52;12.02;;;4.10;99.90;;;;;;5016577;28;20060;-80
2022/01/24 08:04:53;;;;;;;17.05;11.90;;;4.10;99.90;;;;;;5033191;28;20045;-80
2022/01/24 08:07:19;;;;;;;16.10;11.52;;;4.10;99.90;;;;;;5032919;28;20038;-79
2022/01/24 08:09:44;;;;;;;17.80;11.65;;;4.10;99.90;;;;;;5016672;28;20045;-80
2022/01/24 08:12:10;;;;;;;15.93;11.27;;;4.20;99.90;;;;;;4999743;28;20500;-80
2022/01/24 08:14:36;;;;;;;17.60;11.70;;;4.10;99.90;;;;;;5015682;28;20068;-80
2022/01/24 08:17:02;;;;;;;15.88;10.95;;;4.10;99.90;;;;;;5032074;28;20056;-80
2022/01/24 08:19:29;;;;;;;18.65;12.13;;;4.10;99.90;;;;;;5032231;28;20049;-80
2022/01/24 08:21:56;;;;;;;18.92;12.05;;;4.20;99.90;;;;;;5000105;28;20448;-80
2022/01/24 08:24:23;;;;;;;17.38;12.52;;;4.20;99.90;;;;;;5016647;28;20067;-81
2022/01/24 08:26:49;;;;;;;16.77;10.82;;;4.30;99.90;;;;;;5016041;28;20044;-80
2022/01/24 08:29:15;;;;;;;16.67;10.95;;;4.20;99.90;;;;;;5032197;28;20079;-80
2022/01/24 08:31:41;;;;;;;15.15;11.70;;;4.20;99.90;;;;;;4999436;28;20033;-80
2022/01/24 08:34:07;;;;;;;18.70;11.75;;;4.20;99.90;;;;;;4999266;28;20037;-80
2022/01/24 08:36:34;;;;;;;16.60;11.15;;;4.20;99.90;;;;;;5031847;28;20049;-80
2022/01/24 08:39:06;;;;;;;18.10;11.35;;;4.20;99.90;;;;;;5031655;28;20053;-80
2022/01/24 08:41:43;;;;;;;18.05;11.50;;;4.20;99.90;;;;;;5031892;28;20077;-80
2022/01/24 08:46:45;;;;;;;16.90;11.90;;;4.20;99.90;;;;;;5027778;28;20037;-80
2022/01/24 08:49:11;;;;;;;17.75;11.07;;;4.30;99.90;;;;;;5032298;28;20526;-80
2022/01/24 08:51:37;;;;;;;20.35;12.45;;;4.30;99.90;;;;;;5032169;28;20042;-80
2022/01/24 08:54:05;;;;;;;18.00;11.48;;;4.30;99.90;;;;;;5015450;28;20535;-80
2022/01/24 08:56:30;;;;;;;17.02;12.07;;;4.40;99.90;;;;;;5032213;28;20464;-80
2022/01/24 08:58:56;;;;;;;17.35;11.85;;;4.40;99.90;;;;;;5032371;28;20041;-80
2022/01/24 09:01:22;;;;;;;15.93;11.32;;;4.40;99.90;;;;;;5015261;28;20048;-80
2022/01/24 09:03:48;;;;;;;17.25;11.65;;;4.40;99.90;;;;;;4982653;28;20129;-80
2022/01/24 09:06:17;;;;;;;17.77;11.27;;;4.50;99.90;;;;;;5031855;28;20039;-79
2022/01/24 09:08:43;;;;;;;15.23;11.23;;;4.50;99.90;;;;;;5032134;28;20104;-80
2022/01/24 09:11:09;;;;;;;16.60;11.75;;;4.50;99.90;;;;;;5015106;28;20053;-80
2022/01/24 09:13:35;;;;;;;20.80;12.48;;;4.50;99.90;;;;;;5015608;28;20045;-80
2022/01/24 09:16:02;;;;;;;17.77;12.48;;;4.60;99.90;;;;;;4998628;28;20496;-80
2022/01/24 09:18:29;;;;;;;18.40;12.13;;;4.60;99.90;;;;;;5014821;28;20128;-80
2022/01/24 09:20:55;;;;;;;18.17;12.77;;;4.60;99.90;;;;;;5014255;28;20045;-80
2022/01/24 09:23:22;;;;;;;22.48;13.65;;;4.50;99.90;;;;;;5015455;28;20128;-80
2022/01/24 09:25:49;;;;;;;25.42;13.57;;;4.60;99.90;;;;;;5031295;28;20046;-80
2022/01/24 09:28:15;;;;;;;22.67;14.20;;;4.60;99.90;;;;;;4999667;28;20037;-80
2022/01/24 09:30:41;;;;;;;18.58;13.60;;;4.70;99.90;;;;;;5014660;28;20096;-80
2022/01/24 09:33:06;;;;;;;17.75;12.60;;;4.80;99.90;;;;;;5031203;28;20045;-80
2022/01/24 09:35:33;;;;;;;20.63;13.50;;;4.70;99.90;;;;;;5030944;28;20042;-80
2022/01/24 09:37:58;;;;;;;18.98;12.95;;;4.70;99.90;;;;;;5014287;28;20072;-79
2022/01/24 09:40:25;;;;;;;19.95;14.23;;;4.80;99.90;;;;;;5013857;28;20432;-80
2022/01/24 09:42:52;;;;;;;20.77;14.63;;;4.80;99.90;;;;;;5014876;28;20082;-80
2022/01/24 09:45:18;;;;;;;21.13;13.98;;;4.80;99.90;;;;;;5030842;28;20041;-80
2022/01/24 09:47:45;;;;;;;22.73;15.38;;;4.90;99.90;;;;;;5014111;28;20076;-81
2022/01/24 09:50:14;;;;;;;32.00;16.63;;;4.80;99.90;;;;;;5015060;28;20120;-80
2022/01/24 09:52:41;;;;;;;22.65;13.65;;;4.90;99.90;;;;;;5030439;28;20053;-79
2022/01/24 09:55:08;;;;;;;25.58;14.65;;;4.90;99.90;;;;;;5013312;28;20047;-81
2022/01/24 09:57:34;;;;;;;21.67;12.65;;;4.90;99.90;;;;;;5014128;28;20050;-80
2022/01/24 09:59:59;;;;;;;25.15;14.38;;;5.00;99.90;;;;;;5014606;28;20076;-81
2022/01/24 10:02:26;;;;;;;23.85;14.15;;;5.00;99.90;;;;;;5014806;28;20096;-81
2022/01/24 10:05:10;;;;;;;23.63;14.50;;;5.00;99.90;;;;;;5014769;28;20276;-81
2022/01/24 10:07:39;;;;;;;24.83;16.60;;;5.00;99.90;;;;;;5014818;28;20095;-80
2022/01/24 10:10:05;;;;;;;21.65;13.80;;;5.10;99.90;;;;;;5014900;28;20404;-80
2022/01/24 10:17:48;;;;;;;22.55;15.10;;;5.00;99.90;;;;;;5031172;28;20053;-80
2022/01/24 10:20:25;;;;;;;23.45;16.42;;;5.10;99.90;;;;;;5031000;28;20439;-79
2022/01/24 10:23:06;;;;;;;21.90;13.48;;;5.10;99.90;;;;;;5015067;28;20054;-80
2022/01/24 10:25:47;;;;;;;20.58;14.80;;;5.10;99.90;;;;;;5029985;28;20047;-80
2022/01/24 10:28:22;;;;;;;26.17;15.98;;;5.10;99.90;;;;;;5012855;28;20041;-80
2022/01/24 10:31:11;;;;;;;22.05;13.82;;;5.10;99.90;;;;;;5029321;28;20041;-80
2022/01/24 10:33:53;;;;;;;23.42;15.27;;;5.20;99.90;;;;;;5028507;28;20048;-80
2022/01/24 10:36:27;;;;;;;23.95;18.00;;;5.10;99.90;;;;;;5028036;28;20050;-80
2022/01/24 10:39:10;;;;;;;23.98;14.48;;;5.30;99.90;;;;;;5008317;28;20080;-80
2022/01/24 10:44:13;;;;;;;23.92;16.02;;;5.10;99.90;;;;;;5014672;28;20122;-81
2022/01/24 10:46:39;;;;;;;23.23;16.85;;;5.10;95.10;;;;;;5029448;28;20045;-80
2022/01/24 10:49:09;;;;;;;22.50;16.58;;;5.10;98.90;;;;;;5013312;28;20041;-81
2022/01/24 10:51:44;;;;;;;23.95;16.40;;;5.20;99.90;;;;;;5028846;28;20119;-81
2022/01/24 10:54:13;;;;;;;24.58;16.75;;;5.30;99.90;;;;;;5027672;28;20128;-80
2022/01/24 10:56:41;;;;;;;24.10;15.82;;;5.20;99.90;;;;;;5012717;28;20503;-81
2022/01/24 10:59:06;;;;;;;24.00;16.25;;;5.20;99.90;;;;;;5014269;28;20446;-79
2022/01/24 11:01:33;;;;;;;60.42;29.92;;;5.20;99.90;;;;;;5033190;28;20132;-81
2022/01/24 11:03:58;;;;;;;36.92;20.73;;;5.30;99.90;;;;;;5033702;28;20044;-80
2022/01/24 11:06:27;;;;;;;25.75;17.95;;;5.30;99.90;;;;;;5032797;28;20045;-81
2022/01/24 11:09:22;;;;;;;26.08;18.30;;;5.20;99.90;;;;;;5016140;28;20040;-80
2022/01/24 11:11:56;;;;;;;26.08;17.40;;;5.30;99.90;;;;;;5032532;28;20042;-80
2022/01/24 11:14:24;;;;;;;25.83;17.80;;;5.30;99.90;;;;;;5015740;28;20041;-81
2022/01/24 11:16:51;;;;;;;24.45;17.02;;;5.20;99.90;;;;;;5016864;28;20045;-81
2022/01/24 11:19:38;;;;;;;27.48;17.83;;;5.30;99.90;;;;;;5015329;28;20133;-80
2022/01/24 11:22:06;;;;;;;28.38;18.77;;;5.40;99.90;;;;;;5002347;28;20553;-80
2022/01/24 11:27:04;;;;;;;23.90;17.10;;;5.30;99.90;;;;;;5032526;28;20045;-80
2022/01/24 11:29:30;;;;;;;25.40;16.63;;;5.30;99.90;;;;;;5015344;28;20047;-80
2022/01/24 11:32:03;;;;;;;23.48;16.15;;;5.20;99.20;;;;;;5016181;28;20041;-80
2022/01/24 11:34:38;;;;;;;23.77;17.77;;;5.20;95.60;;;;;;5015604;28;20077;-80
2022/01/24 11:37:05;;;;;;;24.50;16.02;;;5.30;90.30;;;;;;5015425;28;20049;-80
2022/01/24 11:39:31;;;;;;;24.67;16.45;;;5.20;69.50;;;;;;5015626;28;20046;-81
2022/01/24 11:41:57;;;;;;;23.45;17.60;;;5.20;92.80;;;;;;5032430;28;20057;-81
2022/01/24 11:44:24;;;;;;;23.02;17.48;;;5.20;93.80;;;;;;5031587;28;20460;-80
2022/01/24 11:46:55;;;;;;;24.52;17.73;;;5.20;99.90;;;;;;5016001;28;20052;-81
2022/01/24 11:49:32;;;;;;;24.83;17.38;;;5.20;99.90;;;;;;5049306;28;20045;-81
2022/01/24 11:52:13;;;;;;;26.15;17.42;;;5.30;99.90;;;;;;5014780;28;20073;-80
2022/01/24 11:55:15;;;;;;;25.77;17.13;;;5.20;95.20;;;;;;5015359;28;20045;-80
2022/01/24 11:57:50;;;;;;;26.42;18.85;;;5.20;84.10;;;;;;5015661;28;20489;-80
2022/01/24 12:00:18;;;;;;;24.55;18.08;;;5.30;91.00;;;;;;5016215;28;20053;-81
2022/01/24 12:02:47;;;;;;;27.23;17.35;;;5.20;82.60;;;;;;5015306;28;20045;-81
2022/01/24 12:05:14;;;;;;;25.63;15.40;;;5.20;82.40;;;;;;5030945;28;20061;-80
2022/01/24 12:07:52;;;;;;;23.85;16.95;;;5.20;56.80;;;;;;5031817;28;20099;-80
2022/01/24 12:10:24;;;;;;;28.02;18.17;;;5.20;66.60;;;;;;5030979;28;20038;-80
2022/01/24 12:13:00;;;;;;;27.25;18.88;;;5.20;76.70;;;;;;5031668;28;20415;-80
2022/01/24 12:15:38;;;;;;;29.13;17.95;;;5.20;90.20;;;;;;5015250;28;20037;-80
2022/01/24 12:18:23;;;;;;;28.02;19.50;;;5.20;93.20;;;;;;5029442;28;20044;-81
2022/01/24 12:21:15;;;;;;;27.52;19.63;;;5.30;97.00;;;;;;5014860;28;20045;-81
2022/01/24 12:23:40;;;;;;;27.52;16.20;;;5.30;99.90;;;;;;5024014;28;20435;-81
2022/01/24 12:26:22;;;;;;;25.25;18.33;;;5.20;90.40;;;;;;5014543;28;20045;-80
2022/01/24 12:28:53;;;;;;;25.25;17.13;;;5.20;93.40;;;;;;5028809;28;20045;-81
2022/01/24 12:31:26;;;;;;;29.35;20.35;;;5.20;72.10;;;;;;5031982;28;20064;-80
2022/01/24 12:33:55;;;;;;;;;;;5.20;72.70;;;;;;5031544;28;20042;-81
2022/01/24 12:36:47;;;;;;;32.08;21.60;;;5.20;81.40;;;;;;5030771;28;19925;-81
2022/01/24 12:39:49;;;;;;;29.65;19.05;;;5.20;90.30;;;;;;5025039;28;20049;-79
2022/01/24 12:48:20;;;;;;;25.92;16.40;;;5.20;96.80;;;;;;5027295;28;20427;-79
2022/01/24 12:50:48;;;;;;;29.30;18.77;;;5.20;92.20;;;;;;5012628;28;20037;-79
2022/01/24 12:53:15;;;;;;;28.77;16.52;;;5.20;99.90;;;;;;5030585;28;20091;-80
2022/01/24 12:55:43;;;;;;;29.15;19.50;;;5.10;98.10;;;;;;5030718;28;20095;-80
2022/01/24 12:58:09;;;;;;;29.90;21.35;;;5.10;98.20;;;;;;5014046;28;20041;-80
2022/01/24 13:00:35;;;;;;;28.38;18.15;;;5.10;99.90;;;;;;5030546;28;20404;-79
2022/01/24 13:03:01;;;;;;;29.60;19.65;;;5.10;88.90;;;;;;5013487;28;20042;-79
2022/01/24 13:05:28;;;;;;;29.42;20.35;;;5.20;99.20;;;;;;5013511;28;20447;-80
2022/01/24 13:07:56;;;;;;;26.83;16.73;;;5.20;99.90;;;;;;4997626;28;20033;-79
2022/01/24 13:10:27;;;;;;;28.15;18.88;;;5.20;86.30;;;;;;5014135;28;20045;-79
2022/01/24 13:13:06;;;;;;;31.77;19.80;;;5.20;93.20;;;;;;5013944;28;20050;-80
2022/01/24 13:21:26;;;;;;;29.38;18.52;;;5.20;52.40;;;;;;5027986;28;20136;-80
2022/01/24 13:23:57;;;;;;;29.70;18.77;;;5.20;38.90;;;;;;5046952;28;20041;-79
2022/01/24 13:26:24;;;;;;;31.70;19.50;;;5.20;40.80;;;;;;5030865;28;20121;-80
2022/01/24 13:28:50;;;;;;;33.55;21.10;;;5.10;52.80;;;;;;4999065;28;20095;-80
2022/01/24 13:31:16;;;;;;;33.80;21.60;;;5.10;72.90;;;;;;5014494;28;20120;-79
2022/01/24 13:33:46;;;;;;;31.70;19.17;;;5.10;67.00;;;;;;5015152;28;20088;-80
2022/01/24 13:36:16;;;;;;;30.23;19.20;;;5.30;72.00;;;;;;5015194;28;20298;-79
2022/01/24 13:38:44;;;;;;;30.58;19.70;;;5.10;56.20;;;;;;5014509;28;20049;-79
2022/01/24 13:41:15;;;;;;;31.38;19.55;;;5.10;60.00;;;;;;5012730;28;20049;-80
2022/01/24 13:44:04;;;;;;;30.83;16.75;;;5.00;58.40;;;;;;5027879;28;20041;-79
2022/01/24 13:46:38;;;;;;;29.08;17.60;;;5.10;47.70;;;;;;5013535;28;20041;-80
2022/01/24 13:49:08;;;;;;;31.83;20.08;;;5.00;43.00;;;;;;5027111;28;20104;-79
2022/01/24 13:51:43;;;;;;;31.80;18.25;;;5.00;43.80;;;;;;5013248;28;20056;-79
2022/01/24 13:54:24;;;;;;;29.42;17.77;;;5.00;54.10;;;;;;5029770;28;20045;-80
2022/01/24 13:56:51;;;;;;;32.10;16.33;;;5.00;51.40;;;;;;5013319;28;20508;-79
2022/01/24 13:59:27;;;;;;;32.88;19.52;;;4.90;78.20;;;;;;5012548;28;20041;-80
2022/01/24 14:02:17;;;;;;;36.38;20.05;;;4.90;83.00;;;;;;5013498;28;20124;-79
2022/01/24 14:04:49;;;;;;;37.70;22.52;;;4.90;77.50;;;;;;5026756;28;20083;-79
2022/01/24 14:07:16;;;;;;;34.55;20.98;;;4.90;66.10;;;;;;5029960;28;20496;-80
2022/01/24 14:09:49;;;;;;;32.30;19.70;;;4.90;81.00;;;;;;5013353;28;20049;-80
2022/01/24 14:12:44;;;;;;;29.10;15.25;;;4.90;99.90;;;;;;5029595;28;20048;-78
2022/01/24 14:17:51;;;;;;;37.72;23.02;;;4.90;99.90;;;;;;5029023;28;20129;-79
2022/01/24 14:20:20;;;;;;;35.65;20.98;;;4.80;97.50;;;;;;5014114;28;20048;-80
2022/01/24 14:22:51;;;;;;;35.47;23.05;;;4.80;95.40;;;;;;5013729;28;20049;-79
2022/01/24 14:25:17;;;;;;;36.30;22.77;;;4.80;99.90;;;;;;5031197;28;20045;-79
2022/01/24 14:27:48;;;;;;;34.67;21.27;;;4.70;99.90;;;;;;5031546;28;20053;-79
2022/01/24 14:30:43;;;;;;;36.03;23.15;;;4.80;99.90;;;;;;5014572;28;20063;-79
2022/01/24 14:33:15;;;;;;;31.60;18.73;;;4.70;99.90;;;;;;5029775;28;20051;-80
2022/01/24 14:35:57;;;;;;;33.90;19.00;;;4.70;99.90;;;;;;5035390;28;20504;-79
2022/01/24 14:38:38;;;;;;;35.92;18.67;;;4.70;92.00;;;;;;5034930;28;20132;-79
2022/01/24 14:41:07;;;;;;;37.67;21.00;;;4.70;80.40;;;;;;5035049;28;20053;-79
2022/01/24 14:46:24;;;;;;;36.47;21.65;;;4.70;96.80;;;;;;5034954;28;20065;-79
2022/01/24 14:49:04;;;;;;;35.35;19.42;;;4.60;99.90;;;;;;5018389;28;20124;-79
2022/01/24 14:51:32;;;;;;;37.22;23.98;;;4.60;99.90;;;;;;5034937;28;20042;-79
2022/01/24 14:54:01;;;;;;;36.13;22.73;;;4.60;93.00;;;;;;5034686;28;20038;-80
2022/01/24 14:56:28;;;;;;;36.00;19.17;;;4.60;93.00;;;;;;5018423;28;20041;-79
2022/01/24 14:58:54;;;;;;;40.80;24.23;;;4.80;76.90;;;;;;5018596;28;20558;-79
2022/01/24 15:01:21;;;;;;;41.35;23.17;;;4.60;99.90;;;;;;5035015;28;20049;-80